Time;durP1;ratioP1;P1;durP2;ratioP2;P2;SDS_P1;SDS_P2;PMS_P1;PMS_P2;Temp;Humidity;BMP_temperature;BMP_pressure;BME280_temperature;BME280_humidity;BME280_pressure;Samples;Min_cycle;Max_cycle;Signal;HPM_P1;HPM_P2
2023/10/17 00:02:53;;;;;;;8.20;1.70;;;7.20;100.00;;;;;;4965365;28;20085;-70
2023/10/17 00:05:23;;;;;;;10.57;1.52;;;7.20;100.00;;;;;;4968441;28;20109;-71
2023/10/17 00:07:50;;;;;;;5.72;1.38;;;7.20;100.00;;;;;;4962977;28;20153;-71
2023/10/17 00:10:18;;;;;;;5.13;1.30;;;7.20;100.00;;;;;;4969110;28;20170;-71
2023/10/17 00:12:51;;;;;;;8.73;1.27;;;7.10;100.00;;;;;;4965238;28;20046;-71
2023/10/17 00:15:28;;;;;;;6.63;1.20;;;7.10;100.00;;;;;;4964486;28;20042;-71
2023/10/17 00:18:03;;;;;;;6.95;1.20;;;7.00;100.00;;;;;;4963068;28;20461;-70
2023/10/17 00:20:37;;;;;;;5.93;1.35;;;7.00;100.00;;;;;;4963110;28;20050;-71
2023/10/17 00:23:06;;;;;;;5.88;1.30;;;7.00;100.00;;;;;;4964978;28;20132;-70
2023/10/17 00:25:35;;;;;;;11.63;1.27;;;7.00;100.00;;;;;;4966949;28;20788;-71
2023/10/17 00:28:02;;;;;;;10.73;1.40;;;7.00;100.00;;;;;;4963408;28;20086;-71
2023/10/17 00:30:30;;;;;;;8.00;1.25;;;7.00;100.00;;;;;;4964386;28;20051;-71
2023/10/17 00:32:57;;;;;;;11.85;2.25;;;6.90;100.00;;;;;;4962460;28;20789;-71
2023/10/17 00:35:26;;;;;;;9.07;1.30;;;6.90;100.00;;;;;;4963753;28;20556;-71
2023/10/17 00:37:57;;;;;;;11.65;1.58;;;6.80;100.00;;;;;;4963522;28;20133;-71
2023/10/17 00:40:34;;;;;;;4.18;1.23;;;6.80;100.00;;;;;;4964640;28;20082;-71
2023/10/17 00:43:04;;;;;;;7.38;1.30;;;6.70;100.00;;;;;;4962273;28;20057;-70
2023/10/17 00:45:35;;;;;;;7.93;1.38;;;6.70;100.00;;;;;;4964721;28;20059;-71
2023/10/17 00:48:05;;;;;;;10.35;1.35;;;6.70;100.00;;;;;;4963801;28;20055;-70
2023/10/17 00:50:33;;;;;;;6.03;1.05;;;6.60;100.00;;;;;;4962103;28;20162;-71
2023/10/17 00:53:00;;;;;;;4.88;1.23;;;6.60;100.00;;;;;;4963560;28;20137;-71
2023/10/17 00:55:28;;;;;;;9.75;1.73;;;6.60;100.00;;;;;;4968193;28;20074;-70
2023/10/17 00:57:56;;;;;;;5.35;1.50;;;6.50;100.00;;;;;;4966218;28;20054;-71
2023/10/17 01:00:24;;;;;;;4.25;1.15;;;6.50;100.00;;;;;;4967354;28;20586;-71
2023/10/17 01:02:51;;;;;;;8.05;1.40;;;6.50;100.00;;;;;;4971560;28;20056;-71
2023/10/17 01:05:20;;;;;;;7.68;1.60;;;6.50;100.00;;;;;;4968346;28;20076;-71
2023/10/17 01:07:47;;;;;;;7.63;1.48;;;6.50;100.00;;;;;;4970112;28;20047;-70
2023/10/17 01:10:17;;;;;;;10.07;1.70;;;6.50;100.00;;;;;;4966010;28;20125;-70
2023/10/17 01:13:07;;;;;;;10.68;1.40;;;6.50;100.00;;;;;;4965984;28;20068;-71
2023/10/17 01:15:33;;;;;;;5.40;1.00;;;6.40;100.00;;;;;;4967442;28;20471;-71
2023/10/17 01:18:06;;;;;;;5.05;1.25;;;6.40;100.00;;;;;;4968983;28;20065;-71
2023/10/17 01:20:35;;;;;;;9.27;1.30;;;6.40;100.00;;;;;;4968093;28;20062;-71
2023/10/17 01:23:03;;;;;;;9.00;1.25;;;6.40;100.00;;;;;;4967547;28;20095;-71
2023/10/17 01:25:34;;;;;;;6.68;1.15;;;6.30;100.00;;;;;;4966488;28;20054;-71
2023/10/17 01:28:03;;;;;;;4.03;1.42;;;6.30;100.00;;;;;;4966789;28;20058;-71
2023/10/17 01:30:30;;;;;;;2.22;0.90;;;6.30;100.00;;;;;;4966053;28;20542;-71
2023/10/17 01:33:00;;;;;;;7.55;1.30;;;6.20;100.00;;;;;;4967922;28;20589;-71
2023/10/17 01:35:27;;;;;;;2.88;1.25;;;6.20;100.00;;;;;;4967095;28;20058;-71
2023/10/17 01:37:57;;;;;;;9.68;1.77;;;6.20;100.00;;;;;;4962969;28;20077;-71
2023/10/17 01:40:27;;;;;;;9.48;1.50;;;6.10;100.00;;;;;;4964927;28;20125;-70
2023/10/17 01:42:59;;;;;;;6.05;1.30;;;6.10;100.00;;;;;;4964364;28;20478;-71
2023/10/17 01:45:27;;;;;;;12.05;1.42;;;6.00;100.00;;;;;;4964775;28;20113;-71
2023/10/17 01:47:55;;;;;;;4.95;1.20;;;6.00;100.00;;;;;;4969403;28;20047;-71
2023/10/17 01:50:26;;;;;;;7.03;1.40;;;5.90;100.00;;;;;;4963534;28;20053;-71
2023/10/17 01:52:53;;;;;;;12.98;1.88;;;5.90;100.00;;;;;;4970517;28;20050;-71
2023/10/17 01:55:27;;;;;;;6.05;1.23;;;5.90;100.00;;;;;;4966749;28;20964;-70
2023/10/17 01:57:57;;;;;;;6.65;1.83;;;5.80;100.00;;;;;;4965334;28;20236;-71
2023/10/17 02:02:55;;;;;;;3.03;1.15;;;5.80;100.00;;;;;;4964129;28;20136;-71
2023/10/17 02:05:22;;;;;;;7.00;1.33;;;5.70;100.00;;;;;;4959245;28;20051;-71
2023/10/17 02:07:50;;;;;;;7.88;1.58;;;5.70;100.00;;;;;;4964057;28;20055;-71
2023/10/17 02:10:21;;;;;;;6.22;1.60;;;5.60;100.00;;;;;;4964782;28;20393;-71
2023/10/17 02:12:48;;;;;;;2.15;1.27;;;5.60;100.00;;;;;;4965623;28;20138;-71
2023/10/17 02:15:19;;;;;;;13.20;1.60;;;5.60;100.00;;;;;;4966539;28;20477;-71
2023/10/17 02:17:47;;;;;;;15.82;2.10;;;5.50;100.00;;;;;;4965065;28;20046;-70
2023/10/17 02:20:21;;;;;;;5.70;1.58;;;5.50;100.00;;;;;;4965482;28;20057;-70
2023/10/17 02:22:51;;;;;;;10.15;1.50;;;5.40;100.00;;;;;;4965924;28;20496;-70
2023/10/17 02:25:21;;;;;;;2.40;1.10;;;5.40;100.00;;;;;;4966852;28;20710;-71
2023/10/17 02:27:49;;;;;;;4.53;1.38;;;5.30;100.00;;;;;;4968791;28;20092;-71
2023/10/17 02:30:20;;;;;;;3.40;1.67;;;5.30;100.00;;;;;;4963638;28;20086;-71
2023/10/17 02:32:53;;;;;;;7.15;1.42;;;5.20;100.00;;;;;;4967581;28;20487;-70
2023/10/17 02:38:05;;;;;;;11.52;2.08;;;5.10;100.00;;;;;;4965824;28;20484;-71
2023/10/17 02:40:38;;;;;;;13.30;1.88;;;5.00;100.00;;;;;;4966361;28;20385;-71
2023/10/17 02:43:05;;;;;;;2.55;1.50;;;5.00;100.00;;;;;;4963472;28;20089;-70
2023/10/17 02:45:32;;;;;;;10.18;1.73;;;5.00;100.00;;;;;;4965341;28;20561;-70
2023/10/17 02:48:23;;;;;;;4.45;1.55;;;4.90;100.00;;;;;;4965936;28;20058;-70
2023/10/17 02:50:58;;;;;;;6.85;1.17;;;4.90;100.00;;;;;;4963221;28;20141;-70
2023/10/17 02:53:31;;;;;;;9.13;1.00;;;4.90;100.00;;;;;;4965552;28;20491;-70
2023/10/17 02:56:07;;;;;;;7.78;2.20;;;4.90;100.00;;;;;;4963154;28;20051;-70
2023/10/17 02:58:34;;;;;;;9.45;1.52;;;4.90;100.00;;;;;;4966361;28;20569;-70
2023/10/17 03:01:01;;;;;;;7.57;1.48;;;4.90;100.00;;;;;;4965499;28;20093;-77
2023/10/17 03:03:29;;;;;;;2.78;1.13;;;4.90;100.00;;;;;;4967438;28;20050;-77
2023/10/17 03:05:57;;;;;;;7.55;1.27;;;5.00;100.00;;;;;;4971455;28;20056;-77
2023/10/17 03:08:24;;;;;;;3.92;1.85;;;5.00;100.00;;;;;;4967234;28;20051;-77
2023/10/17 03:10:55;;;;;;;6.82;1.45;;;5.10;100.00;;;;;;4967693;28;20046;-77
2023/10/17 03:13:37;;;;;;;8.05;1.73;;;5.10;100.00;;;;;;4967164;28;20440;-77
2023/10/17 03:16:15;;;;;;;8.73;1.80;;;5.20;100.00;;;;;;4966970;28;20089;-76
2023/10/17 03:18:50;;;;;;;6.50;1.63;;;5.30;100.00;;;;;;4968050;28;20118;-77
2023/10/17 03:21:20;;;;;;;7.50;1.80;;;5.30;100.00;;;;;;4962163;28;20194;-77
2023/10/17 03:23:49;;;;;;;14.75;1.55;;;5.40;100.00;;;;;;4967202;28;20224;-77
2023/10/17 03:26:19;;;;;;;11.75;2.08;;;5.40;100.00;;;;;;4968286;28;20055;-77
2023/10/17 03:28:46;;;;;;;6.50;1.20;;;5.40;100.00;;;;;;4967484;28;20051;-77
2023/10/17 03:31:20;;;;;;;11.63;1.48;;;5.40;100.00;;;;;;4966915;28;20051;-77
2023/10/17 03:33:51;;;;;;;8.63;1.88;;;5.50;100.00;;;;;;4968138;28;20125;-77
2023/10/17 03:39:19;;;;;;;7.05;1.50;;;5.50;100.00;;;;;;4968005;28;20047;-77
2023/10/17 03:41:46;;;;;;;6.97;1.35;;;5.60;100.00;;;;;;4967563;28;20050;-77
2023/10/17 03:44:15;;;;;;;6.95;2.08;;;5.60;100.00;;;;;;4967533;28;20174;-77
2023/10/17 03:46:46;;;;;;;7.90;1.55;;;5.70;100.00;;;;;;4966497;28;20059;-77
2023/10/17 03:49:18;;;;;;;7.15;1.35;;;5.70;100.00;;;;;;4967215;28;20088;-77
2023/10/17 03:51:50;;;;;;;8.88;2.00;;;5.80;100.00;;;;;;4965919;28;20128;-77
2023/10/17 03:54:18;;;;;;;5.93;1.48;;;5.80;100.00;;;;;;4966662;28;20046;-76
2023/10/17 03:56:45;;;;;;;4.53;1.50;;;5.80;100.00;;;;;;4967255;28;20093;-77
2023/10/17 04:01:47;;;;;;;11.90;1.42;;;5.90;100.00;;;;;;4966790;28;20089;-77
2023/10/17 04:04:30;;;;;;;3.28;1.42;;;5.90;100.00;;;;;;4971344;28;20436;-77
2023/10/17 04:06:57;;;;;;;6.93;1.70;;;5.90;100.00;;;;;;4967581;28;20053;-77
2023/10/17 04:12:03;;;;;;;5.32;1.75;;;6.00;100.00;;;;;;4966955;28;20149;-77
2023/10/17 04:14:50;;;;;;;11.25;1.92;;;6.00;100.00;;;;;;4965382;28;20046;-77
2023/10/17 04:17:23;;;;;;;6.65;1.30;;;6.00;100.00;;;;;;4976134;28;20049;-77
2023/10/17 04:19:58;;;;;;;12.98;1.75;;;6.10;100.00;;;;;;4968008;28;20047;-77
2023/10/17 04:22:29;;;;;;;8.07;1.30;;;6.10;100.00;;;;;;4967420;28;20050;-77
2023/10/17 04:25:00;;;;;;;10.07;2.17;;;6.10;100.00;;;;;;4966128;28;20054;-77
2023/10/17 04:27:31;;;;;;;9.30;1.67;;;6.20;100.00;;;;;;4971303;28;20109;-77
2023/10/17 04:29:59;;;;;;;5.65;1.65;;;6.20;100.00;;;;;;4969107;28;20142;-77
2023/10/17 04:32:29;;;;;;;7.05;1.58;;;6.20;100.00;;;;;;4972075;28;20498;-77
2023/10/17 04:34:57;;;;;;;12.05;1.58;;;6.20;100.00;;;;;;4973869;28;20046;-77
2023/10/17 04:37:45;;;;;;;8.27;1.45;;;6.20;100.00;;;;;;4971641;28;20070;-77
2023/10/17 04:40:28;;;;;;;11.10;1.90;;;6.30;100.00;;;;;;4969973;28;20058;-77
2023/10/17 04:45:23;;;;;;;5.53;2.00;;;6.30;100.00;;;;;;4981003;28;20479;-78
2023/10/17 04:48:10;;;;;;;9.88;1.80;;;6.30;100.00;;;;;;4972774;28;20385;-78
2023/10/17 04:50:45;;;;;;;16.13;2.38;;;6.30;100.00;;;;;;4970499;28;20517;-78
2023/10/17 04:53:35;;;;;;;12.68;1.98;;;6.30;100.00;;;;;;4969725;28;20526;-77
2023/10/17 05:04:33;;;;;;;6.00;2.03;;;6.40;100.00;;;;;;4966275;28;20055;-77
2023/10/17 06:18:59;;;;;;;10.02;1.75;;;7.00;100.00;;;;;;4967694;28;20055;-76
2023/10/17 06:21:35;;;;;;;9.57;1.90;;;7.00;100.00;;;;;;4967739;28;20051;-76
2023/10/17 06:24:06;;;;;;;11.13;1.90;;;7.00;100.00;;;;;;4967095;28;20058;-76
2023/10/17 06:26:53;;;;;;;11.90;1.83;;;7.00;100.00;;;;;;4963769;28;20108;-76
2023/10/17 06:34:20;;;;;;;9.25;2.45;;;7.10;100.00;;;;;;4960910;28;20105;-77
2023/10/17 06:36:59;;;;;;;7.68;1.50;;;7.20;100.00;;;;;;4973313;28;20455;-76
2023/10/17 06:39:36;;;;;;;10.73;2.47;;;7.20;100.00;;;;;;4972583;28;20051;-77
2023/10/17 06:45:09;;;;;;;10.98;4.78;;;7.30;100.00;;;;;;4968788;28;20882;-77
2023/10/17 06:47:42;;;;;;;10.02;3.97;;;7.40;100.00;;;;;;4960831;28;20050;-77
2023/10/17 06:55:28;;;;;;;10.18;3.60;;;7.40;100.00;;;;;;4959267;28;20105;-77
2023/10/17 06:57:57;;;;;;;12.35;3.17;;;7.40;100.00;;;;;;4963899;28;20137;-76
2023/10/17 07:00:27;;;;;;;8.82;3.15;;;7.50;100.00;;;;;;4964960;28;20129;-77
2023/10/17 07:02:57;;;;;;;16.45;3.22;;;7.50;100.00;;;;;;4964958;28;20050;-76
2023/10/17 07:05:26;;;;;;;11.93;4.05;;;7.60;100.00;;;;;;4970804;28;20082;-77
2023/10/17 07:07:53;;;;;;;11.35;2.60;;;7.60;100.00;;;;;;4965740;28;20102;-76
2023/10/17 07:13:28;;;;;;;8.07;3.45;;;7.70;100.00;;;;;;4965435;28;20053;-77
2023/10/17 07:15:55;;;;;;;10.35;2.60;;;7.70;100.00;;;;;;4962337;28;20109;-76
2023/10/17 07:23:42;;;;;;;11.35;2.00;;;7.80;100.00;;;;;;4964157;28;20737;-77
2023/10/17 07:26:35;;;;;;;8.85;1.80;;;7.90;100.00;;;;;;4950679;28;20198;-77
2023/10/17 07:29:05;;;;;;;10.10;2.40;;;7.90;100.00;;;;;;4964886;28;20059;-77
2023/10/17 07:31:33;;;;;;;17.48;3.05;;;8.00;100.00;;;;;;4964746;28;20115;-77
2023/10/17 07:36:36;;;;;;;11.05;2.60;;;8.10;100.00;;;;;;4967112;28;20058;-77
2023/10/17 07:39:15;;;;;;;11.00;2.50;;;8.20;100.00;;;;;;4965121;28;20058;-77
2023/10/17 07:41:52;;;;;;;10.63;2.97;;;8.30;100.00;;;;;;4963206;28;20465;-77
2023/10/17 07:44:25;;;;;;;11.80;2.63;;;8.40;100.00;;;;;;4965158;28;20092;-77
2023/10/17 07:49:37;;;;;;;6.10;2.28;;;8.60;100.00;;;;;;4967685;28;20061;-78
2023/10/17 07:52:12;;;;;;;3.85;2.10;;;8.60;100.00;;;;;;4969307;28;20059;-77
2023/10/17 07:55:17;;;;;;;7.25;2.05;;;8.60;100.00;;;;;;4963112;28;20951;-77
2023/10/17 07:57:52;;;;;;;5.85;1.85;;;8.70;100.00;;;;;;4973199;28;20042;-77
2023/10/17 08:00:33;;;;;;;6.30;2.00;;;8.70;100.00;;;;;;4961538;28;20058;-77
2023/10/17 08:03:08;;;;;;;6.90;1.85;;;8.80;100.00;;;;;;4965683;28;20101;-76
2023/10/17 08:05:44;;;;;;;7.65;2.88;;;8.90;100.00;;;;;;4977508;28;20577;-71
2023/10/17 08:08:14;;;;;;;7.72;2.15;;;9.10;100.00;;;;;;4958645;28;20559;-71
2023/10/17 08:10:48;;;;;;;13.02;3.00;;;9.20;100.00;;;;;;4962697;28;20050;-71
2023/10/17 08:13:15;;;;;;;7.75;1.85;;;9.30;99.40;;;;;;4956528;28;20498;-71
2023/10/17 08:18:15;;;;;;;14.70;2.20;;;9.50;94.90;;;;;;4953635;28;20046;-71
2023/10/17 08:23:30;;;;;;;10.52;1.55;;;9.40;95.90;;;;;;4971171;28;20052;-71
2023/10/17 08:26:01;;;;;;;5.97;1.80;;;9.40;96.20;;;;;;4965362;28;20054;-71
2023/10/17 08:28:46;;;;;;;;;;;;;;;;;;;;;
2023/10/17 08:34:03;;;;;;;9.85;1.75;;;9.20;96.90;;;;;;4970720;28;20047;-71
2023/10/17 08:36:53;;;;;;;12.20;1.88;;;9.10;97.30;;;;;;4957790;28;20054;-71
2023/10/17 08:42:14;;;;;;;6.72;1.88;;;9.00;98.80;;;;;;4962858;28;20051;-71
2023/10/17 08:44:46;;;;;;;6.50;1.60;;;9.10;99.10;;;;;;4964108;28;20050;-71
2023/10/17 08:47:16;;;;;;;9.20;1.60;;;9.40;96.90;;;;;;4966007;28;20058;-71
2023/10/17 08:49:45;;;;;;;8.88;1.38;;;9.70;96.80;;;;;;4963035;28;20049;-71
2023/10/17 08:52:23;;;;;;;3.55;1.30;;;10.00;93.70;;;;;;4963394;28;20097;-71
2023/10/17 08:54:54;;;;;;;19.83;2.35;;;10.30;92.80;;;;;;4967256;28;20118;-71
2023/10/17 08:57:24;;;;;;;2.65;1.42;;;10.40;91.00;;;;;;4964141;28;20042;-71
2023/10/17 09:02:29;;;;;;;4.90;1.85;;;10.70;90.80;;;;;;4962947;28;20078;-70
2023/10/17 09:05:05;;;;;;;7.35;2.67;;;10.90;90.00;;;;;;4962843;28;20050;-70
2023/10/17 09:07:32;;;;;;;13.05;1.90;;;11.00;87.30;;;;;;4961789;28;20074;-70
2023/10/17 09:10:04;;;;;;;5.25;1.10;;;11.10;87.50;;;;;;4962843;28;20051;-70
2023/10/17 09:12:42;;;;;;;3.83;1.20;;;11.20;86.20;;;;;;4960271;28;20078;-70
2023/10/17 09:15:35;;;;;;;7.97;1.17;;;11.20;82.80;;;;;;4967055;28;20077;-68
2023/10/17 09:18:07;;;;;;;3.42;1.05;;;11.20;85.20;;;;;;4965020;28;20058;-70
2023/10/17 09:20:35;;;;;;;2.03;1.00;;;11.20;86.40;;;;;;4968042;28;20054;-70
2023/10/17 09:23:04;;;;;;;9.50;1.45;;;11.20;86.10;;;;;;4965706;28;20051;-70
2023/10/17 09:25:31;;;;;;;7.78;1.70;;;11.30;83.30;;;;;;4967208;28;20062;-70
2023/10/17 09:27:59;;;;;;;11.07;1.65;;;11.30;83.80;;;;;;4965676;28;20065;-71
2023/10/17 09:30:26;;;;;;;7.82;1.20;;;11.40;86.70;;;;;;4965299;28;20047;-71
2023/10/17 09:32:54;;;;;;;2.20;0.93;;;11.60;85.40;;;;;;4963300;28;20403;-70
2023/10/17 09:35:22;;;;;;;186.82;8.25;;;11.60;84.50;;;;;;4963184;28;20578;-70
2023/10/17 09:37:50;;;;;;;8.02;1.08;;;11.80;83.90;;;;;;4966307;28;20522;-70
2023/10/17 09:40:33;;;;;;;141.45;7.75;;;11.90;84.20;;;;;;4966720;28;20050;-71
2023/10/17 09:43:03;;;;;;;385.88;27.15;;;12.10;84.50;;;;;;4965339;28;20516;-70
2023/10/17 09:45:33;;;;;;;110.05;8.15;;;12.10;81.00;;;;;;4963708;28;20060;-70
2023/10/17 09:48:04;;;;;;;10.50;1.27;;;12.10;78.30;;;;;;4966105;28;20137;-70
2023/10/17 09:50:34;;;;;;;57.45;4.78;;;12.10;79.30;;;;;;4964907;28;20057;-71
2023/10/17 09:53:14;;;;;;;44.03;4.45;;;12.00;78.40;;;;;;4964739;28;20061;-71
2023/10/17 09:55:50;;;;;;;32.45;3.20;;;11.90;78.30;;;;;;4962365;28;20050;-70
2023/10/17 09:58:31;;;;;;;371.02;32.15;;;12.00;79.60;;;;;;4966548;28;20151;-72
2023/10/17 10:01:05;;;;;;;25.40;2.47;;;11.90;76.30;;;;;;4965821;28;20150;-73
2023/10/17 10:03:35;;;;;;;3.95;1.00;;;11.90;76.30;;;;;;4975001;28;20050;-70
2023/10/17 10:06:25;;;;;;;5.13;0.90;;;11.80;76.80;;;;;;4966128;28;20547;-70
2023/10/17 10:09:06;;;;;;;4.88;1.20;;;11.70;77.70;;;;;;4966218;28;20152;-73
2023/10/17 10:14:42;;;;;;;7.50;1.58;;;11.70;80.90;;;;;;4963822;28;20059;-72
2023/10/17 10:17:10;;;;;;;4.97;0.90;;;11.70;79.00;;;;;;4973900;28;20139;-71
2023/10/17 10:19:40;;;;;;;9.55;1.80;;;11.70;78.30;;;;;;4971277;28;20236;-72
2023/10/17 10:22:10;;;;;;;9.98;1.02;;;11.80;81.50;;;;;;4963972;28;20054;-72
2023/10/17 10:24:39;;;;;;;3.35;0.55;;;11.90;81.30;;;;;;4968464;28;20048;-72
2023/10/17 10:29:51;;;;;;;25.15;1.80;;;11.90;78.90;;;;;;4957219;28;20054;-72
2023/10/17 10:32:25;;;;;;;3.65;1.02;;;11.90;79.70;;;;;;4965533;28;20051;-72
2023/10/17 10:34:53;;;;;;;2.92;0.80;;;12.00;80.40;;;;;;4965270;28;20458;-72
2023/10/17 10:37:21;;;;;;;12.48;1.50;;;12.00;80.20;;;;;;4974108;28;20051;-72
2023/10/17 10:40:22;;;;;;;5.03;0.90;;;12.10;79.30;;;;;;4969644;28;20156;-72
2023/10/17 10:43:01;;;;;;;3.47;0.85;;;12.10;81.60;;;;;;4966770;28;20050;-72
2023/10/17 10:45:36;;;;;;;4.10;1.35;;;12.20;80.60;;;;;;4943140;28;20062;-72
2023/10/17 10:48:14;;;;;;;4.57;0.70;;;12.20;80.20;;;;;;4964487;28;20069;-72
2023/10/17 10:50:50;;;;;;;6.20;0.98;;;12.10;78.30;;;;;;4963412;28;20052;-72
2023/10/17 10:53:31;;;;;;;8.85;1.10;;;12.10;79.30;;;;;;4965281;28;20118;-72
2023/10/17 10:56:13;;;;;;;7.30;1.15;;;12.20;80.70;;;;;;4963921;28;20523;-72
2023/10/17 10:58:53;;;;;;;10.18;1.30;;;12.20;78.80;;;;;;4965744;28;20203;-72
2023/10/17 11:01:22;;;;;;;3.80;0.88;;;12.10;79.60;;;;;;4963264;28;20563;-72
2023/10/17 11:03:50;;;;;;;3.10;0.90;;;12.20;80.10;;;;;;4959937;28;20142;-73
2023/10/17 11:06:27;;;;;;;6.88;1.38;;;12.20;79.00;;;;;;4956756;28;20046;-72
2023/10/17 11:08:54;;;;;;;23.05;1.83;;;12.00;76.90;;;;;;4968340;28;20165;-72
2023/10/17 11:11:22;;;;;;;247.55;15.77;;;12.10;78.10;;;;;;4963520;28;20050;-72
2023/10/17 11:13:51;;;;;;;11.18;1.63;;;12.00;79.80;;;;;;4963346;28;20051;-72
2023/10/17 11:16:21;;;;;;;10.80;1.52;;;12.10;77.50;;;;;;4962234;28;20047;-72
2023/10/17 11:18:48;;;;;;;7.40;1.02;;;12.10;78.60;;;;;;4961259;28;20066;-72
2023/10/17 11:21:20;;;;;;;2.78;0.65;;;12.10;79.60;;;;;;4961904;28;20050;-72
2023/10/17 11:24:04;;;;;;;8.82;0.88;;;12.00;77.30;;;;;;4959995;28;20077;-72
2023/10/17 11:26:35;;;;;;;3.78;0.70;;;11.90;79.00;;;;;;4964246;28;20137;-72
2023/10/17 11:29:04;;;;;;;7.65;0.85;;;12.00;80.10;;;;;;4950510;28;20062;-72
2023/10/17 11:31:32;;;;;;;5.18;1.10;;;12.00;80.50;;;;;;4957882;28;20054;-72
2023/10/17 11:34:14;;;;;;;5.72;0.80;;;12.00;80.80;;;;;;4965419;28;20540;-72
2023/10/17 11:36:50;;;;;;;6.57;0.68;;;12.00;77.90;;;;;;4955142;28;20047;-72
2023/10/17 11:39:18;;;;;;;5.20;1.15;;;12.00;77.70;;;;;;4963543;28;20728;-72
2023/10/17 11:41:48;;;;;;;9.10;2.60;;;12.10;80.80;;;;;;4952891;28;20105;-72
2023/10/17 11:44:23;;;;;;;7.03;1.83;;;12.20;79.90;;;;;;4952617;28;20145;-72
2023/10/17 11:47:01;;;;;;;6.25;2.38;;;12.30;80.40;;;;;;4946056;28;20492;-72
2023/10/17 11:49:35;;;;;;;17.30;3.58;;;12.30;80.50;;;;;;4963841;28;20275;-72
2023/10/17 11:52:09;;;;;;;6.28;2.15;;;12.50;81.30;;;;;;4961303;28;20054;-72
2023/10/17 11:55:04;;;;;;;4.53;0.70;;;12.60;80.10;;;;;;4954513;28;20105;-72
2023/10/17 11:57:31;;;;;;;1.65;0.60;;;12.50;77.40;;;;;;4950954;28;20479;-72
2023/10/17 12:02:49;;;;;;;4.72;0.63;;;12.70;77.10;;;;;;4961012;28;20933;-72
2023/10/17 12:05:18;;;;;;;3.75;0.60;;;12.70;74.50;;;;;;4959866;28;20069;-72
2023/10/17 12:07:49;;;;;;;4.82;0.82;;;12.90;76.00;;;;;;4957584;28;20518;-72
2023/10/17 12:10:17;;;;;;;7.53;0.82;;;12.90;75.80;;;;;;4961079;28;20547;-72
2023/10/17 12:12:44;;;;;;;5.00;0.90;;;13.10;77.70;;;;;;4957865;28;20440;-72
2023/10/17 12:15:13;;;;;;;1.58;0.60;;;13.10;77.00;;;;;;4956264;28;20069;-72
2023/10/17 12:17:41;;;;;;;5.38;0.77;;;13.10;75.50;;;;;;4942331;28;20074;-72
2023/10/17 12:20:12;;;;;;;11.75;1.80;;;13.10;74.70;;;;;;4955696;28;20055;-71
2023/10/17 12:22:42;;;;;;;5.25;0.93;;;13.00;76.40;;;;;;4949194;28;20055;-71
2023/10/17 12:25:16;;;;;;;5.45;0.80;;;13.10;77.90;;;;;;4945789;28;20571;-71
2023/10/17 12:27:46;;;;;;;2.95;0.75;;;13.10;76.20;;;;;;4942304;28;20054;-71
2023/10/17 12:30:22;;;;;;;9.93;1.88;;;13.20;76.30;;;;;;4959926;28;20050;-71
2023/10/17 12:32:49;;;;;;;4.65;1.63;;;13.10;74.20;;;;;;4949562;28;20050;-71
2023/10/17 12:35:21;;;;;;;10.68;1.30;;;12.80;71.90;;;;;;4946006;28;20053;-71
2023/10/17 12:37:52;;;;;;;5.07;1.25;;;12.80;75.20;;;;;;4957186;28;20542;-71
2023/10/17 12:40:21;;;;;;;17.05;1.85;;;12.70;74.30;;;;;;4965468;28;20153;-71
2023/10/17 12:42:50;;;;;;;3.45;1.00;;;12.70;74.10;;;;;;4967117;28;20520;-71
2023/10/17 12:45:19;;;;;;;11.95;1.33;;;12.80;77.50;;;;;;4960031;28;20058;-71
2023/10/17 12:47:47;;;;;;;9.00;3.83;;;12.80;75.90;;;;;;4957208;28;20145;-71
2023/10/17 12:50:20;;;;;;;6.18;1.30;;;12.70;75.10;;;;;;4955582;28;20050;-71
2023/10/17 12:52:48;;;;;;;15.88;1.48;;;12.70;73.60;;;;;;4974648;28;20061;-71
2023/10/17 12:55:15;;;;;;;3.97;2.03;;;12.70;75.50;;;;;;4948102;28;20125;-71
2023/10/17 12:57:43;;;;;;;3.63;1.05;;;12.60;75.30;;;;;;4964850;28;20126;-71
2023/10/17 13:00:11;;;;;;;9.77;1.52;;;12.60;75.90;;;;;;4949500;28;20051;-71
2023/10/17 13:02:39;;;;;;;7.20;1.27;;;12.60;78.30;;;;;;4964605;28;20424;-71
2023/10/17 13:05:11;;;;;;;3.63;1.00;;;12.70;76.60;;;;;;4965311;28;20074;-71
2023/10/17 13:07:40;;;;;;;3.97;0.98;;;12.70;76.40;;;;;;4956623;28;20132;-71
2023/10/17 13:10:08;;;;;;;4.95;1.20;;;12.70;76.60;;;;;;4969915;28;20065;-71
2023/10/17 13:12:36;;;;;;;3.65;1.02;;;12.60;75.30;;;;;;4966023;28;20366;-71
2023/10/17 13:15:08;;;;;;;5.97;1.17;;;12.50;76.20;;;;;;4947240;28;20051;-71
2023/10/17 13:17:36;;;;;;;7.35;1.10;;;12.60;75.50;;;;;;4941925;28;20054;-71
2023/10/17 13:20:10;;;;;;;4.70;1.60;;;12.50;76.40;;;;;;4965421;28;20054;-71
2023/10/17 13:22:49;;;;;;;25.70;1.90;;;12.50;75.30;;;;;;4953273;28;20493;-71
2023/10/17 13:25:19;;;;;;;4.68;1.00;;;12.60;74.60;;;;;;4965109;28;20127;-71
2023/10/17 13:27:46;;;;;;;5.90;1.25;;;12.60;77.70;;;;;;4966980;28;20047;-71
2023/10/17 13:30:13;;;;;;;3.97;0.70;;;12.60;75.70;;;;;;4965306;28;20523;-71
2023/10/17 13:32:40;;;;;;;7.15;1.13;;;12.70;76.50;;;;;;4948417;28;20445;-71
2023/10/17 13:35:09;;;;;;;3.30;0.60;;;12.80;77.00;;;;;;4963964;28;20100;-71
2023/10/17 13:37:51;;;;;;;7.20;0.98;;;12.80;77.30;;;;;;4955460;28;20206;-71
2023/10/17 13:40:21;;;;;;;6.07;1.25;;;12.80;74.70;;;;;;4964871;28;20047;-71
2023/10/17 13:42:52;;;;;;;9.52;1.17;;;12.70;75.60;;;;;;4964111;28;20089;-71
2023/10/17 13:45:24;;;;;;;8.35;1.20;;;12.60;73.60;;;;;;4966891;28;20623;-71
2023/10/17 13:47:53;;;;;;;8.70;1.50;;;12.60;72.60;;;;;;4962000;28;20150;-71
2023/10/17 13:50:20;;;;;;;7.55;0.98;;;12.60;76.20;;;;;;4963928;28;20051;-71
2023/10/17 13:52:52;;;;;;;4.90;1.05;;;12.60;72.50;;;;;;4964739;28;20164;-71
2023/10/17 13:55:25;;;;;;;6.25;1.52;;;12.60;77.60;;;;;;4968177;28;20047;-71
2023/10/17 13:58:01;;;;;;;9.45;1.35;;;12.60;72.90;;;;;;4949730;28;20129;-71
2023/10/17 14:00:44;;;;;;;7.70;1.00;;;12.50;73.00;;;;;;4963994;28;20503;-71
2023/10/17 14:03:15;;;;;;;6.60;1.08;;;12.50;73.90;;;;;;4958956;28;20145;-71
2023/10/17 14:05:48;;;;;;;6.28;0.82;;;12.40;74.90;;;;;;4965652;28;20054;-71
2023/10/17 14:08:17;;;;;;;3.70;1.17;;;12.40;77.00;;;;;;4948443;28;20140;-71
2023/10/17 14:10:46;;;;;;;1.30;0.60;;;12.40;77.00;;;;;;4946094;28;20055;-71
2023/10/17 14:13:16;;;;;;;8.38;1.02;;;12.40;76.50;;;;;;4972394;28;20105;-71
2023/10/17 14:15:43;;;;;;;5.82;0.77;;;12.30;75.10;;;;;;4963357;28;20053;-71
2023/10/17 14:18:13;;;;;;;5.80;0.80;;;12.20;74.80;;;;;;4967219;28;20510;-72
2023/10/17 14:23:30;;;;;;;8.02;0.85;;;12.10;76.60;;;;;;4957290;28;20082;-71
2023/10/17 14:26:00;;;;;;;4.72;1.05;;;12.10;77.40;;;;;;4963279;28;20050;-71
2023/10/17 14:28:29;;;;;;;2.72;1.15;;;12.00;74.50;;;;;;4955876;28;20106;-71
2023/10/17 14:30:55;;;;;;;3.33;1.23;;;11.90;78.40;;;;;;4960760;28;20050;-71
2023/10/17 14:33:23;;;;;;;2.80;1.10;;;11.90;77.90;;;;;;4944134;28;20054;-71
2023/10/17 14:35:50;;;;;;;7.50;1.77;;;11.90;77.10;;;;;;4964133;28;20412;-71
2023/10/17 14:38:21;;;;;;;3.42;0.90;;;11.90;80.10;;;;;;4960881;28;20051;-71
2023/10/17 14:40:54;;;;;;;4.68;1.02;;;11.80;76.90;;;;;;4939510;28;20083;-71
2023/10/17 14:43:27;;;;;;;3.90;1.30;;;11.70;75.70;;;;;;4966004;28;20055;-71
2023/10/17 14:45:56;;;;;;;3.30;1.30;;;11.70;76.30;;;;;;4948761;28;20058;-73
2023/10/17 14:48:24;;;;;;;6.75;1.42;;;11.60;75.20;;;;;;4966772;28;20051;-71
2023/10/17 14:50:51;;;;;;;4.30;1.25;;;11.50;74.40;;;;;;4956511;28;20050;-71
2023/10/17 14:53:19;;;;;;;24.15;1.70;;;11.50;75.20;;;;;;4963646;28;20126;-71
2023/10/17 14:55:57;;;;;;;15.70;1.92;;;11.40;76.40;;;;;;4952741;28;20439;-72
2023/10/17 14:58:24;;;;;;;6.40;1.67;;;11.40;79.70;;;;;;4962403;28;20359;-71
2023/10/17 15:00:52;;;;;;;4.78;1.35;;;11.30;79.00;;;;;;4961048;28;20156;-71
2023/10/17 15:03:19;;;;;;;9.30;1.10;;;11.30;80.20;;;;;;4959714;28;20054;-71
2023/10/17 15:05:46;;;;;;;4.40;0.82;;;11.20;81.40;;;;;;4961811;28;20051;-71
2023/10/17 15:08:14;;;;;;;9.25;1.10;;;11.10;78.10;;;;;;4976033;28;20050;-71
2023/10/17 15:10:40;;;;;;;4.88;1.30;;;11.10;79.70;;;;;;4951976;28;20049;-71
2023/10/17 15:13:11;;;;;;;6.00;1.58;;;11.00;77.10;;;;;;4961274;28;20051;-71
2023/10/17 15:15:38;;;;;;;11.00;2.33;;;11.00;79.40;;;;;;4969157;28;20532;-71
2023/10/17 15:18:05;;;;;;;8.98;2.35;;;10.90;79.30;;;;;;4964471;28;20108;-71
2023/10/17 15:20:32;;;;;;;7.57;2.78;;;10.90;80.40;;;;;;4957753;28;20141;-71
2023/10/17 15:23:01;;;;;;;6.75;2.50;;;10.90;78.70;;;;;;4962810;28;20046;-71
2023/10/17 15:25:29;;;;;;;13.27;3.40;;;10.80;80.50;;;;;;4959691;28;20049;-71
2023/10/17 15:27:56;;;;;;;14.13;4.00;;;10.80;79.50;;;;;;4964770;28;20389;-71
2023/10/17 15:30:23;;;;;;;21.25;3.67;;;10.80;80.10;;;;;;4961857;28;20051;-70
2023/10/17 15:33:03;;;;;;;14.43;4.57;;;10.80;80.10;;;;;;4961010;28;20050;-70
2023/10/17 15:35:31;;;;;;;8.13;2.95;;;10.70;79.30;;;;;;4956210;28;20321;-70
2023/10/17 15:37:58;;;;;;;13.50;2.03;;;10.70;81.70;;;;;;4967026;28;20057;-70